ROYN/OGN METAR and TAF weather

Enter ICAO airport designator
Station Type Date Time Source
ROYN METAR 2022/01/27 22:38 UTC NOAA

ROYN 272238Z AUTO 05020KT 3800 -RA BR FEW005 SCT007 BKN009 20/20 Q1017 RMK A3006


Station Type Date Time Source
ROYN Decoded METAR 2022/01/27 22:38 UTC NOAA

Yonaguni Airport, Japan (ROYN) 24-28N 122-59E 19M
Jan 27, 2022 - 05:38 PM EST / 2022.01.27 2238 UTC
Wind: from the NE (050 degrees) at 23 MPH (20 KT):0
Visibility: 2 mile(s):0
Sky conditions: mostly cloudy
Weather: light rain; mist
Temperature: 68 F (20 C)
Dew Point: 68 F (20 C)
Relative Humidity: 100%
Pressure (altimeter): 30.03 in. Hg (1017 hPa)
ob: ROYN 272238Z AUTO 05020KT 3800 -RA BR FEW005 SCT007 BKN009 20/20 Q1017 RMK A3006
cycle: 22

Station Type Date Time Source
ROYN TAF UTC NOAA

Error!

Example: see airport list